Time;durP1;ratioP1;P1;durP2;ratioP2;P2;SDS_P1;SDS_P2;PMS_P1;PMS_P2;Temp;Humidity;BMP_temperature;BMP_pressure;BME280_temperature;BME280_humidity;BME280_pressure;Samples;Min_cycle;Max_cycle;Signal;HPM_P1;HPM_P2
2021/09/04 00:01:27;;;;;;;;;;;16.20;99.90;;;;;;1856240;77;20137;-72
2021/09/04 00:03:53;;;;;;;;;;;16.20;99.90;;;;;;1865490;77;20196;-72
2021/09/04 00:06:20;;;;;;;;;;;16.10;99.90;;;;;;1864985;77;20164;-72
2021/09/04 00:08:47;;;;;;;;;;;16.10;99.90;;;;;;1868579;76;20125;-71
2021/09/04 00:11:14;;;;;;;;;;;16.10;99.90;;;;;;1851327;77;20185;-71
2021/09/04 00:13:41;;;;;;;;;;;16.10;99.90;;;;;;1834744;78;20112;-71
2021/09/04 00:16:08;;;;;;;;;;;16.10;99.90;;;;;;1850504;77;20184;-72
2021/09/04 00:18:34;;;;;;;;;;;16.10;99.90;;;;;;1862884;77;20176;-72
2021/09/04 00:21:01;;;;;;;;;;;16.00;99.90;;;;;;1865238;77;20153;-72
2021/09/04 00:23:29;;;;;;;;;;;16.00;99.90;;;;;;1865714;77;20172;-71
2021/09/04 00:25:55;;;;;;;;;;;16.00;99.90;;;;;;1865259;77;20155;-72
2021/09/04 00:28:22;;;;;;;;;;;15.90;99.90;;;;;;1865355;77;20470;-73
2021/09/04 00:30:49;;;;;;;;;;;16.10;99.90;;;;;;1864473;77;20175;-73
2021/09/04 00:33:16;;;;;;;;;;;16.00;99.90;;;;;;1865364;77;20462;-72
2021/09/04 00:35:43;;;;;;;;;;;16.10;99.90;;;;;;1863070;77;20168;-72
2021/09/04 00:38:09;;;;;;;;;;;16.10;99.90;;;;;;1846784;77;20127;-72
2021/09/04 00:40:36;;;;;;;;;;;16.10;99.90;;;;;;1834634;78;20213;-70
2021/09/04 00:43:03;;;;;;;;;;;16.10;99.90;;;;;;1834399;78;20230;-71
2021/09/04 00:45:30;;;;;;;;;;;16.00;99.90;;;;;;1836463;77;20937;-71
2021/09/04 00:47:58;;;;;;;;;;;16.10;99.90;;;;;;1834595;78;20244;-71
2021/09/04 00:50:26;;;;;;;;;;;15.90;99.90;;;;;;1836720;77;20506;-71
2021/09/04 00:52:53;;;;;;;;;;;16.00;99.90;;;;;;1834690;78;20178;-72
2021/09/04 00:55:21;;;;;;;;;;;15.90;99.90;;;;;;1834281;78;20127;-72
2021/09/04 00:57:47;;;;;;;;;;;15.90;99.90;;;;;;1834237;78;20155;-72
2021/09/04 01:00:14;;;;;;;;;;;16.00;99.90;;;;;;1834733;78;20132;-73
2021/09/04 01:02:41;;;;;;;;;;;15.90;99.90;;;;;;1843880;77;20186;-72
2021/09/04 01:05:08;;;;;;;;;;;16.00;99.90;;;;;;1862787;77;20386;-72
2021/09/04 01:07:35;;;;;;;;;;;15.90;99.90;;;;;;1847345;77;20440;-72
2021/09/04 01:10:02;;;;;;;;;;;15.90;99.90;;;;;;1834635;78;20139;-73
2021/09/04 01:12:31;;;;;;;;;;;15.80;99.90;;;;;;1834628;78;20314;-71
2021/09/04 01:14:58;;;;;;;;;;;15.80;99.90;;;;;;1834181;78;20182;-71
2021/09/04 01:17:26;;;;;;;;;;;15.70;99.90;;;;;;1834617;78;20170;-71
2021/09/04 01:19:52;;;;;;;;;;;15.80;99.90;;;;;;1835992;77;20166;-71
2021/09/04 01:22:19;;;;;;;;;;;15.80;99.90;;;;;;1835117;78;20263;-73
2021/09/04 01:24:48;;;;;;;;;;;15.80;99.90;;;;;;1836854;77;20259;-71
2021/09/04 01:27:15;;;;;;;;;;;15.80;99.90;;;;;;1833697;78;20131;-71
2021/09/04 01:29:42;;;;;;;;;;;15.70;99.90;;;;;;1834617;78;20189;-72
2021/09/04 01:32:09;;;;;;;;;;;15.70;99.90;;;;;;1834564;78;20157;-72
2021/09/04 01:34:36;;;;;;;;;;;15.70;99.90;;;;;;1837278;77;20241;-70
2021/09/04 01:37:03;;;;;;;;;;;15.70;99.90;;;;;;1861232;77;20195;-71
2021/09/04 01:39:29;;;;;;;;;;;15.80;99.90;;;;;;1834552;78;20164;-71
2021/09/04 01:41:56;;;;;;;;;;;15.80;99.90;;;;;;1846978;70;20168;-70
2021/09/04 01:44:23;;;;;;;;;;;15.80;99.90;;;;;;1864390;77;20118;-71
2021/09/04 01:46:50;;;;;;;;;;;15.90;99.90;;;;;;1886054;75;20190;-70
2021/09/04 01:49:17;;;;;;;;;;;15.80;99.90;;;;;;1891430;75;20226;-70
2021/09/04 01:51:43;;;;;;;;;;;15.90;99.90;;;;;;1879886;75;20392;-71
2021/09/04 01:54:10;;;;;;;;;;;15.90;99.90;;;;;;1905960;75;20185;-72
2021/09/04 01:56:37;;;;;;;;;;;15.90;99.90;;;;;;1900604;75;20399;-72
2021/09/04 01:59:04;;;;;;;;;;;15.80;99.90;;;;;;1888451;75;20118;-73
2021/09/04 02:01:31;;;;;;;;;;;15.70;99.90;;;;;;1906242;75;20459;-72
2021/09/04 02:03:57;;;;;;;;;;;15.70;99.90;;;;;;1895082;75;20124;-71
2021/09/04 02:06:25;;;;;;;;;;;15.80;99.90;;;;;;1875173;77;20476;-71
2021/09/04 02:08:51;;;;;;;;;;;15.70;99.90;;;;;;1882503;75;20153;-72
2021/09/04 02:11:18;;;;;;;;;;;15.70;99.90;;;;;;1927429;74;20208;-72
2021/09/04 02:13:45;;;;;;;;;;;15.70;99.90;;;;;;1934925;74;20125;-72
2021/09/04 02:16:12;;;;;;;;;;;15.50;99.90;;;;;;1885740;76;20112;-72
2021/09/04 02:18:39;;;;;;;;;;;15.60;99.90;;;;;;1885828;76;20469;-73
2021/09/04 02:21:06;;;;;;;;;;;15.70;99.90;;;;;;1886018;76;20120;-73
2021/09/04 02:23:32;;;;;;;;;;;15.80;99.90;;;;;;1887200;75;20510;-72
2021/09/04 02:25:59;;;;;;;;;;;15.80;99.90;;;;;;1885775;76;20175;-72
2021/09/04 02:28:26;;;;;;;;;;;15.70;99.90;;;;;;1885704;76;20390;-73
2021/09/04 02:30:53;;;;;;;;;;;15.70;99.90;;;;;;1884837;76;20222;-72
2021/09/04 02:33:20;;;;;;;;;;;15.60;99.90;;;;;;1884783;76;20433;-71
2021/09/04 02:35:46;;;;;;;;;;;15.70;99.90;;;;;;1884602;76;20124;-71
2021/09/04 02:38:13;;;;;;;;;;;15.60;99.90;;;;;;1865479;76;20130;-70
2021/09/04 02:40:40;;;;;;;;;;;15.70;99.90;;;;;;1864932;75;20410;-70
2021/09/04 02:43:07;;;;;;;;;;;15.60;99.90;;;;;;1880944;76;20144;-70
2021/09/04 02:45:34;;;;;;;;;;;15.60;99.90;;;;;;1880686;76;20200;-71
2021/09/04 02:48:01;;;;;;;;;;;15.60;99.90;;;;;;1880281;76;20436;-71
2021/09/04 02:50:27;;;;;;;;;;;15.50;99.90;;;;;;1875644;77;20129;-70
2021/09/04 02:53:13;;;;;;;;;;;15.60;99.90;;;;;;1875259;76;20503;-71
2021/09/04 02:55:40;;;;;;;;;;;15.50;99.90;;;;;;2019272;71;20143;-71
2021/09/04 02:58:07;;;;;;;;;;;15.50;99.90;;;;;;2020808;71;20139;-71
2021/09/04 03:00:34;;;;;;;;;;;15.60;99.90;;;;;;2018692;70;20182;-70
2021/09/04 03:03:01;;;;;;;;;;;15.60;99.90;;;;;;1985008;72;20141;-70
2021/09/04 03:05:27;;;;;;;;;;;15.60;99.90;;;;;;1982008;72;20223;-70
2021/09/04 03:07:54;;;;;;;;;;;15.70;99.90;;;;;;1984539;72;20173;-71
2021/09/04 03:10:21;;;;;;;;;;;15.80;99.90;;;;;;1984876;72;20134;-70
2021/09/04 03:12:48;;;;;;;;;;;15.80;99.90;;;;;;1984824;71;20333;-70
2021/09/04 03:15:15;;;;;;;;;;;15.60;99.90;;;;;;1984739;72;20137;-70
2021/09/04 03:17:42;;;;;;;;;;;15.60;99.90;;;;;;1984781;72;20258;-70
2021/09/04 03:20:09;;;;;;;;;;;15.70;99.90;;;;;;1980438;72;20267;-70
2021/09/04 03:22:36;;;;;;;;;;;15.70;99.90;;;;;;1951788;72;20199;-71
2021/09/04 03:25:03;;;;;;;;;;;15.60;99.90;;;;;;1949442;74;20156;-72
2021/09/04 03:27:30;;;;;;;;;;;15.60;99.90;;;;;;1949500;74;20179;-69
2021/09/04 03:29:57;;;;;;;;;;;15.50;99.90;;;;;;1949591;73;20194;-71
2021/09/04 03:32:24;;;;;;;;;;;15.50;99.90;;;;;;1951814;72;20147;-70
2021/09/04 03:34:52;;;;;;;;;;;15.40;99.90;;;;;;1949532;74;20241;-70
2021/09/04 03:37:19;;;;;;;;;;;15.40;99.90;;;;;;1962196;72;20225;-71
2021/09/04 03:39:46;;;;;;;;;;;15.30;99.90;;;;;;1960198;72;20288;-69
2021/09/04 03:42:13;;;;;;;;;;;15.20;99.90;;;;;;1972003;72;20173;-70
2021/09/04 03:44:40;;;;;;;;;;;15.20;99.90;;;;;;1984625;72;20810;-69
2021/09/04 03:47:07;;;;;;;;;;;15.30;99.90;;;;;;1984131;72;20192;-70
2021/09/04 03:49:34;;;;;;;;;;;15.30;99.90;;;;;;1984265;72;20130;-71
2021/09/04 03:52:01;;;;;;;;;;;15.20;99.90;;;;;;1984441;71;20212;-70
2021/09/04 03:54:28;;;;;;;;;;;15.20;99.90;;;;;;1954432;72;20178;-70
2021/09/04 03:56:54;;;;;;;;;;;15.30;99.90;;;;;;1951462;72;20132;-69
2021/09/04 03:59:21;;;;;;;;;;;15.30;99.90;;;;;;1949289;74;20175;-70
2021/09/04 04:01:48;;;;;;;;;;;15.40;99.90;;;;;;1949506;73;20135;-71
2021/09/04 04:04:15;;;;;;;;;;;15.50;99.90;;;;;;1949533;74;20217;-71
2021/09/04 04:06:42;;;;;;;;;;;15.50;99.90;;;;;;1953402;72;20113;-70
2021/09/04 04:09:09;;;;;;;;;;;15.40;99.90;;;;;;1953029;72;20143;-70
2021/09/04 04:11:36;;;;;;;;;;;15.40;99.90;;;;;;1949749;74;20198;-70
2021/09/04 04:14:02;;;;;;;;;;;15.40;99.90;;;;;;1952060;72;20139;-71
2021/09/04 04:16:29;;;;;;;;;;;15.40;99.90;;;;;;1948620;74;20187;-69
2021/09/04 04:18:56;;;;;;;;;;;15.40;99.90;;;;;;1949866;74;20191;-70
2021/09/04 04:21:23;;;;;;;;;;;15.30;99.90;;;;;;1949725;74;20136;-70
2021/09/04 04:23:50;;;;;;;;;;;15.30;99.90;;;;;;1949588;74;20187;-70
2021/09/04 04:26:16;;;;;;;;;;;15.40;99.90;;;;;;1973565;72;20180;-70
2021/09/04 04:28:43;;;;;;;;;;;15.30;99.90;;;;;;1983299;72;20137;-69
2021/09/04 04:31:10;;;;;;;;;;;15.30;99.90;;;;;;1984335;72;20223;-70
2021/09/04 04:33:37;;;;;;;;;;;15.40;99.90;;;;;;1985079;72;20184;-70
2021/09/04 04:36:04;;;;;;;;;;;15.30;99.90;;;;;;1984110;72;20189;-69
2021/09/04 04:38:31;;;;;;;;;;;15.20;99.90;;;;;;1958776;72;20180;-70
2021/09/04 04:40:57;;;;;;;;;;;15.20;99.90;;;;;;1949787;74;20136;-70
2021/09/04 04:43:24;;;;;;;;;;;15.40;99.90;;;;;;1949507;74;20187;-71
2021/09/04 04:45:51;;;;;;;;;;;15.30;99.90;;;;;;1951290;72;20135;-71
2021/09/04 04:48:19;;;;;;;;;;;15.30;99.90;;;;;;1984776;71;20141;-70
2021/09/04 04:50:46;;;;;;;;;;;15.30;99.90;;;;;;1984368;71;20252;-70
2021/09/04 04:53:13;;;;;;;;;;;15.20;99.90;;;;;;1979164;72;20171;-71
2021/09/04 04:55:40;;;;;;;;;;;15.30;99.90;;;;;;1949205;74;20529;-69
2021/09/04 04:58:07;;;;;;;;;;;15.40;99.90;;;;;;1949610;74;20195;-71
2021/09/04 05:00:34;;;;;;;;;;;15.30;99.90;;;;;;1949816;74;20421;-70
2021/09/04 05:03:00;;;;;;;;;;;15.40;99.90;;;;;;1952188;72;20213;-70
2021/09/04 05:05:27;;;;;;;;;;;15.30;99.90;;;;;;1949614;74;20175;-70
2021/09/04 05:07:54;;;;;;;;;;;15.30;99.90;;;;;;1950605;72;20190;-71
2021/09/04 05:10:21;;;;;;;;;;;15.30;99.90;;;;;;1980606;71;20169;-69
2021/09/04 05:12:48;;;;;;;;;;;15.30;99.90;;;;;;1975349;71;20118;-71
2021/09/04 05:15:14;;;;;;;;;;;15.40;99.90;;;;;;1975393;73;20118;-70
2021/09/04 05:17:41;;;;;;;;;;;15.40;99.90;;;;;;1975592;73;20102;-70
2021/09/04 05:20:09;;;;;;;;;;;15.30;99.90;;;;;;1968087;72;20424;-70
2021/09/04 05:22:36;;;;;;;;;;;15.20;99.90;;;;;;1949758;74;20198;-71
2021/09/04 05:25:02;;;;;;;;;;;15.40;99.90;;;;;;1950558;72;20137;-70
2021/09/04 05:27:29;;;;;;;;;;;15.50;99.90;;;;;;1949315;74;20195;-71
2021/09/04 05:29:56;;;;;;;;;;;15.50;99.90;;;;;;1949760;74;20147;-70
2021/09/04 05:32:23;;;;;;;;;;;15.50;99.90;;;;;;1949877;74;20155;-69
2021/09/04 05:34:50;;;;;;;;;;;15.40;99.90;;;;;;1966319;72;20204;-70
2021/09/04 05:37:18;;;;;;;;;;;15.60;99.90;;;;;;1976984;72;20314;-71
2021/09/04 05:39:45;;;;;;;;;;;15.60;99.90;;;;;;1949691;72;20228;-71
2021/09/04 05:42:12;;;;;;;;;;;15.60;99.90;;;;;;1984721;72;20190;-72
2021/09/04 05:44:39;;;;;;;;;;;15.60;99.90;;;;;;1984637;72;20144;-70
2021/09/04 05:47:06;;;;;;;;;;;15.70;99.90;;;;;;1984741;72;20192;-70
2021/09/04 05:49:32;;;;;;;;;;;15.70;99.90;;;;;;1985209;72;20137;-71
2021/09/04 05:51:59;;;;;;;;;;;15.60;99.90;;;;;;1983964;71;20290;-69
2021/09/04 05:54:26;;;;;;;;;;;15.70;99.90;;;;;;1985168;72;20173;-70
2021/09/04 05:56:53;;;;;;;;;;;15.80;99.90;;;;;;1970150;72;20214;-71
2021/09/04 05:59:20;;;;;;;;;;;15.80;99.90;;;;;;1950058;74;20319;-70
2021/09/04 06:01:47;;;;;;;;;;;15.80;99.90;;;;;;1949750;74;20210;-71
2021/09/04 06:04:14;;;;;;;;;;;15.90;99.90;;;;;;1949922;74;20229;-70
2021/09/04 06:06:41;;;;;;;;;;;15.90;99.90;;;;;;1949220;74;20465;-71
2021/09/04 06:09:08;;;;;;;;;;;16.00;99.90;;;;;;1971437;72;20468;-69
2021/09/04 06:11:35;;;;;;;;;;;15.90;99.90;;;;;;1969610;72;20138;-70
2021/09/04 06:14:02;;;;;;;;;;;16.00;99.90;;;;;;1951344;72;20191;-69
2021/09/04 06:16:28;;;;;;;;;;;16.00;99.90;;;;;;1949622;74;20190;-70
2021/09/04 06:18:55;;;;;;;;;;;16.10;99.90;;;;;;1978005;72;20426;-70
2021/09/04 06:21:22;;;;;;;;;;;16.00;99.90;;;;;;1974425;72;20185;-70
2021/09/04 06:23:49;;;;;;;;;;;16.10;99.90;;;;;;1950187;72;20187;-69
2021/09/04 06:26:16;;;;;;;;;;;16.10;99.90;;;;;;1983923;72;20163;-71
2021/09/04 06:28:43;;;;;;;;;;;16.10;99.90;;;;;;1984214;72;20196;-70
2021/09/04 06:31:09;;;;;;;;;;;16.10;99.90;;;;;;1985004;71;20149;-71
2021/09/04 06:33:36;;;;;;;;;;;16.10;99.90;;;;;;1984152;72;20180;-70
2021/09/04 06:36:03;;;;;;;;;;;16.20;99.90;;;;;;1984179;72;20184;-71
2021/09/04 06:38:30;;;;;;;;;;;16.20;99.90;;;;;;1964862;72;20111;-71
2021/09/04 06:40:57;;;;;;;;;;;16.30;99.90;;;;;;1974416;73;20466;-71
2021/09/04 06:43:23;;;;;;;;;;;16.40;99.90;;;;;;1974851;73;20157;-70
2021/09/04 06:45:50;;;;;;;;;;;16.50;99.90;;;;;;1964877;72;20919;-70
2021/09/04 06:48:17;;;;;;;;;;;16.60;99.90;;;;;;1984093;72;20481;-71
2021/09/04 06:50:44;;;;;;;;;;;16.60;99.90;;;;;;1984229;72;20136;-70
2021/09/04 06:53:11;;;;;;;;;;;16.60;99.90;;;;;;1979342;72;20198;-70
2021/09/04 06:55:38;;;;;;;;;;;16.70;99.90;;;;;;1984129;72;20192;-69
2021/09/04 06:58:04;;;;;;;;;;;16.70;99.90;;;;;;1984014;72;20411;-71
2021/09/04 07:00:31;;;;;;;;;;;16.70;99.90;;;;;;1984323;72;20200;-71
2021/09/04 07:02:58;;;;;;;;;;;16.80;99.90;;;;;;1980449;72;20125;-71
2021/09/04 07:05:25;;;;;;;;;;;16.80;99.90;;;;;;1960965;72;20128;-70
2021/09/04 07:07:52;;;;;;;;;;;16.80;99.90;;;;;;1954601;72;20214;-72
2021/09/04 07:10:18;;;;;;;;;;;16.70;99.90;;;;;;1983275;71;20145;-72
2021/09/04 07:12:45;;;;;;;;;;;16.80;99.90;;;;;;1975729;72;20218;-70
2021/09/04 07:15:12;;;;;;;;;;;16.80;99.90;;;;;;1978849;72;20289;-71
2021/09/04 07:17:39;;;;;;;;;;;16.80;99.90;;;;;;1972649;72;20426;-70
2021/09/04 07:20:06;;;;;;;;;;;16.90;99.90;;;;;;1979092;72;20317;-71
2021/09/04 07:22:33;;;;;;;;;;;16.90;99.90;;;;;;1974425;72;20136;-71
2021/09/04 07:25:00;;;;;;;;;;;16.90;99.90;;;;;;1976824;71;20178;-70
2021/09/04 07:27:26;;;;;;;;;;;16.90;99.90;;;;;;1984843;71;20184;-70
2021/09/04 07:29:53;;;;;;;;;;;16.90;99.90;;;;;;1980730;72;20441;-70
2021/09/04 07:32:20;;;;;;;;;;;16.90;99.90;;;;;;1976341;71;20226;-71
2021/09/04 07:34:47;;;;;;;;;;;17.00;99.90;;;;;;1986840;71;20129;-72
2021/09/04 07:37:14;;;;;;;;;;;17.00;99.90;;;;;;1983997;72;20137;-72
2021/09/04 07:39:40;;;;;;;;;;;17.00;99.90;;;;;;1968104;72;20170;-72
2021/09/04 07:42:07;;;;;;;;;;;17.00;99.90;;;;;;1913288;71;20218;-73
2021/09/04 07:44:34;;;;;;;;;;;17.00;99.90;;;;;;1861471;77;20315;-73
2021/09/04 07:47:01;;;;;;;;;;;17.10;99.90;;;;;;1833178;77;20180;-74
2021/09/04 07:49:28;;;;;;;;;;;17.10;99.90;;;;;;1841688;77;20159;-74
2021/09/04 07:51:55;;;;;;;;;;;17.10;99.90;;;;;;1842307;77;20217;-76
2021/09/04 07:54:22;;;;;;;;;;;17.20;99.90;;;;;;1816344;78;20230;-74
2021/09/04 07:56:49;;;;;;;;;;;17.20;99.90;;;;;;1839542;77;20201;-74
2021/09/04 07:59:16;;;;;;;;;;;17.10;99.90;;;;;;1818075;77;20169;-76
2021/09/04 08:01:43;;;;;;;;;;;17.20;99.90;;;;;;1805240;78;20259;-74
2021/09/04 08:04:09;;;;;;;;;;;17.30;99.90;;;;;;1801320;78;20217;-73
2021/09/04 08:06:36;;;;;;;;;;;17.30;99.90;;;;;;1807840;78;20409;-75
2021/09/04 08:09:03;;;;;;;;;;;17.30;99.90;;;;;;1789871;78;20173;-73
2021/09/04 08:11:30;;;;;;;;;;;17.30;99.90;;;;;;1803624;77;20126;-73
2021/09/04 08:13:57;;;;;;;;;;;17.40;99.90;;;;;;1802074;78;20258;-73
2021/09/04 08:16:23;;;;;;;;;;;17.40;99.90;;;;;;1837698;77;20191;-73
2021/09/04 08:18:50;;;;;;;;;;;17.50;99.90;;;;;;1803056;79;20152;-73
2021/09/04 08:21:17;;;;;;;;;;;17.40;99.90;;;;;;1814038;78;20190;-74
2021/09/04 08:23:44;;;;;;;;;;;17.40;99.90;;;;;;1803877;77;20182;-72
2021/09/04 08:26:11;;;;;;;;;;;17.40;99.90;;;;;;1790082;79;20205;-75
2021/09/04 08:28:37;;;;;;;;;;;17.30;99.90;;;;;;1810663;78;20178;-73
2021/09/04 08:31:04;;;;;;;;;;;17.30;99.90;;;;;;1811686;78;20184;-73
2021/09/04 08:33:31;;;;;;;;;;;17.40;99.90;;;;;;1782992;79;20115;-74
2021/09/04 08:35:58;;;;;;;;;;;17.30;99.90;;;;;;1822520;77;20621;-74
2021/09/04 08:38:25;;;;;;;;;;;17.30;99.90;;;;;;1833624;77;20169;-72
2021/09/04 08:40:54;;;;;;;;;;;17.40;99.90;;;;;;1798782;77;20203;-72
2021/09/04 08:43:21;;;;;;;;;;;17.50;99.90;;;;;;1791783;79;20432;-72
2021/09/04 08:45:48;;;;;;;;;;;17.50;99.90;;;;;;1818260;77;20474;-73
2021/09/04 08:48:16;;;;;;;;;;;17.60;99.90;;;;;;1786128;78;20119;-75
2021/09/04 08:50:42;;;;;;;;;;;17.80;99.90;;;;;;1817660;77;20165;-73
2021/09/04 08:53:09;;;;;;;;;;;17.80;99.90;;;;;;1843343;77;20412;-73
2021/09/04 08:55:36;;;;;;;;;;;17.80;99.90;;;;;;1825150;78;20188;-72
2021/09/04 08:58:03;;;;;;;;;;;17.80;99.90;;;;;;1800771;79;20444;-72
2021/09/04 09:00:34;;;;;;;;;;;17.70;99.90;;;;;;1844212;77;20214;-71
2021/09/04 09:03:01;;;;;;;;;;;17.70;99.90;;;;;;1818001;79;20202;-71
2021/09/04 09:05:41;;;;;;;;;;;17.70;99.90;;;;;;1821699;78;20121;-71
2021/09/04 09:08:10;;;;;;;;;;;17.60;99.90;;;;;;1818006;79;20207;-71
2021/09/04 09:10:44;;;;;;;;;;;17.70;99.90;;;;;;1816977;79;20262;-71
2021/09/04 09:13:18;;;;;;;;;;;17.60;99.90;;;;;;1818098;79;20454;-71
2021/09/04 09:15:45;;;;;;;;;;;17.70;99.90;;;;;;1818058;79;20467;-71
2021/09/04 09:18:13;;;;;;;;;;;17.70;99.90;;;;;;1818156;79;20438;-72
2021/09/04 09:20:41;;;;;;;;;;;17.80;99.90;;;;;;1805223;77;20176;-72
2021/09/04 09:23:09;;;;;;;;;;;17.90;99.90;;;;;;1798761;79;20113;-72
2021/09/04 09:25:36;;;;;;;;;;;18.00;99.90;;;;;;1795482;80;20492;-71
2021/09/04 09:28:11;;;;;;;;;;;18.10;99.90;;;;;;1798822;79;20207;-71
2021/09/04 09:30:38;;;;;;;;;;;18.20;99.90;;;;;;1798837;79;20176;-72
2021/09/04 09:33:05;;;;;;;;;;;18.10;99.90;;;;;;1798757;78;20124;-71
2021/09/04 09:35:33;;;;;;;;;;;18.00;99.90;;;;;;1798971;77;20251;-71
2021/09/04 09:38:01;;;;;;;;;;;18.10;99.90;;;;;;1818136;79;20140;-72
2021/09/04 09:40:29;;;;;;;;;;;18.10;99.90;;;;;;1817614;79;20176;-71
2021/09/04 09:42:56;;;;;;;;;;;18.00;99.90;;;;;;1818121;78;20200;-72
2021/09/04 09:45:24;;;;;;;;;;;18.00;99.90;;;;;;1847971;77;20376;-71
2021/09/04 09:47:51;;;;;;;;;;;17.90;99.90;;;;;;1850584;77;20177;-71
2021/09/04 09:50:18;;;;;;;;;;;17.90;99.90;;;;;;1854910;77;20166;-72
2021/09/04 09:52:48;;;;;;;;;;;18.10;99.90;;;;;;1850751;76;20169;-71
2021/09/04 09:55:15;;;;;;;;;;;18.50;99.90;;;;;;1854744;77;20130;-71
2021/09/04 09:57:43;;;;;;;;;;;18.90;99.90;;;;;;1854480;77;20217;-71
2021/09/04 10:00:10;;;;;;;;;;;19.00;99.90;;;;;;1854992;77;20201;-71
2021/09/04 10:02:37;;;;;;;;;;;19.20;99.90;;;;;;1854462;76;20161;-72
2021/09/04 10:05:04;;;;;;;;;;;19.40;99.90;;;;;;1800677;77;20187;-72
2021/09/04 10:07:31;;;;;;;;;;;19.30;99.90;;;;;;1798728;79;20394;-72
2021/09/04 10:09:58;;;;;;;;;;;19.30;99.90;;;;;;1798726;79;20184;-71
2021/09/04 10:12:25;;;;;;;;;;;19.10;99.90;;;;;;1798726;78;20164;-71
2021/09/04 10:14:51;;;;;;;;;;;19.00;99.90;;;;;;1798969;79;20133;-71
2021/09/04 10:17:20;;;;;;;;;;;18.70;99.90;;;;;;1814793;77;20205;-71
2021/09/04 10:19:49;;;;;;;;;;;18.70;99.90;;;;;;1854416;77;20442;-71
2021/09/04 10:22:17;;;;;;;;;;;18.60;99.90;;;;;;1854794;76;20177;-71
2021/09/04 10:24:45;;;;;;;;;;;18.60;99.90;;;;;;1806054;77;20128;-72
2021/09/04 10:27:13;;;;;;;;;;;18.70;99.90;;;;;;1785072;80;20163;-71
2021/09/04 10:29:41;;;;;;;;;;;18.60;99.90;;;;;;1785173;80;20214;-71
2021/09/04 10:32:08;;;;;;;;;;;18.60;99.90;;;;;;1785175;79;20401;-71
2021/09/04 10:34:37;;;;;;;;;;;18.70;99.90;;;;;;1823621;77;20240;-71
2021/09/04 10:37:05;;;;;;;;;;;18.70;99.90;;;;;;1854035;77;20125;-71
2021/09/04 10:39:50;;;;;;;;;;;19.10;99.90;;;;;;1847333;77;20110;-71
2021/09/04 10:42:18;;;;;;;;;;;19.30;99.90;;;;;;1818013;78;20168;-72
2021/09/04 10:44:47;;;;;;;;;;;19.20;99.90;;;;;;1808399;79;20614;-71
2021/09/04 10:47:14;;;;;;;;;;;19.20;99.90;;;;;;1817956;79;20191;-71
2021/09/04 10:49:42;;;;;;;;;;;19.10;99.90;;;;;;1818180;79;20253;-72
2021/09/04 10:52:09;;;;;;;;;;;19.10;99.90;;;;;;1817936;78;20196;-72
2021/09/04 10:54:41;;;;;;;;;;;19.10;99.90;;;;;;1844556;77;20157;-72
2021/09/04 10:57:19;;;;;;;;;;;19.30;99.90;;;;;;1853633;77;20373;-72
2021/09/04 11:00:04;;;;;;;;;;;19.40;99.90;;;;;;1854644;77;20173;-71
2021/09/04 11:02:41;;;;;;;;;;;19.40;99.90;;;;;;1854714;76;20188;-72
2021/09/04 11:05:26;;;;;;;;;;;19.10;99.90;;;;;;1854703;77;20454;-72
2021/09/04 11:08:03;;;;;;;;;;;18.90;99.90;;;;;;1825095;77;20113;-72
2021/09/04 11:10:30;;;;;;;;;;;19.00;99.90;;;;;;1816072;79;20416;-72
2021/09/04 11:13:14;;;;;;;;;;;19.20;99.90;;;;;;1817880;78;20497;-72
2021/09/04 11:15:41;;;;;;;;;;;19.50;99.90;;;;;;1800106;77;20168;-71
2021/09/04 11:18:08;;;;;;;;;;;19.30;99.90;;;;;;1839261;77;20193;-72
2021/09/04 11:20:45;;;;;;;;;;;19.50;99.90;;;;;;1854710;77;20130;-72
2021/09/04 11:23:12;;;;;;;;;;;19.40;99.90;;;;;;1854843;77;20471;-72
2021/09/04 11:25:41;;;;;;;;;;;19.20;99.90;;;;;;1854740;77;20170;-71
2021/09/04 11:28:08;;;;;;;;;;;19.30;99.90;;;;;;1836772;77;20183;-72
2021/09/04 11:30:35;;;;;;;;;;;19.30;99.90;;;;;;1798928;79;20128;-72
2021/09/04 11:33:14;;;;;;;;;;;19.50;99.90;;;;;;1798753;78;20183;-71
2021/09/04 11:35:49;;;;;;;;;;;19.50;99.90;;;;;;1788314;80;20178;-72
2021/09/04 11:38:15;;;;;;;;;;;19.30;99.90;;;;;;1787839;80;20150;-72
2021/09/04 11:40:46;;;;;;;;;;;19.40;99.90;;;;;;1788397;79;20244;-72
2021/09/04 11:43:16;;;;;;;;;;;19.70;99.90;;;;;;1800720;77;20430;-72
2021/09/04 11:45:44;;;;;;;;;;;19.70;99.90;;;;;;1823753;77;20171;-73
2021/09/04 11:48:12;;;;;;;;;;;19.70;99.90;;;;;;1817494;79;20227;-73
2021/09/04 11:50:39;;;;;;;;;;;19.60;99.90;;;;;;1816423;77;20160;-72
2021/09/04 11:53:10;;;;;;;;;;;19.50;99.90;;;;;;1849687;77;20114;-72
2021/09/04 11:55:37;;;;;;;;;;;19.40;99.90;;;;;;1832706;77;20161;-72
2021/09/04 11:58:05;;;;;;;;;;;19.30;99.90;;;;;;1842703;77;20216;-72
2021/09/04 12:00:36;;;;;;;;;;;19.40;99.90;;;;;;1854682;77;20297;-72
2021/09/04 12:03:07;;;;;;;;;;;19.60;99.90;;;;;;1850290;76;20177;-72
2021/09/04 12:05:37;;;;;;;;;;;20.00;99.90;;;;;;1843132;77;20224;-71
2021/09/04 12:08:09;;;;;;;;;;;20.00;99.90;;;;;;1844848;77;20187;-71
2021/09/04 12:10:37;;;;;;;;;;;19.90;99.90;;;;;;1817109;77;20128;-72
2021/09/04 12:13:10;;;;;;;;;;;20.20;99.90;;;;;;1817812;79;20168;-72
2021/09/04 12:15:39;;;;;;;;;;;20.50;99.90;;;;;;1837055;77;20193;-72
2021/09/04 12:18:06;;;;;;;;;;;20.60;99.90;;;;;;1852815;77;20162;-72
2021/09/04 12:20:35;;;;;;;;;;;21.00;99.90;;;;;;1827741;77;20299;-72
2021/09/04 12:23:18;;;;;;;;;;;21.50;99.90;;;;;;1850440;77;20467;-72
2021/09/04 12:25:46;;;;;;;;;;;21.50;99.90;;;;;;1827706;77;20202;-72
2021/09/04 12:28:13;;;;;;;;;;;21.10;99.90;;;;;;1840215;77;20270;-72
2021/09/04 12:30:57;;;;;;;;;;;21.40;99.90;;;;;;1825541;77;20390;-71
2021/09/04 12:33:24;;;;;;;;;;;21.90;99.90;;;;;;1810565;79;20425;-71
2021/09/04 12:35:55;;;;;;;;;;;22.20;99.90;;;;;;1818449;77;20449;-72
2021/09/04 12:38:24;;;;;;;;;;;22.60;99.90;;;;;;1847174;78;20161;-71
2021/09/04 12:40:57;;;;;;;;;;;22.60;99.90;;;;;;1847163;76;20122;-71
2021/09/04 12:43:24;;;;;;;;;;;22.90;99.90;;;;;;1836985;77;20222;-70
2021/09/04 12:46:05;;;;;;;;;;;22.90;99.90;;;;;;1817964;79;20128;-71
2021/09/04 12:48:34;;;;;;;;;;;22.40;99.90;;;;;;1815758;77;20218;-70
2021/09/04 12:51:17;;;;;;;;;;;22.00;99.90;;;;;;1834680;77;20482;-70
2021/09/04 12:53:45;;;;;;;;;;;21.70;99.90;;;;;;1816997;77;20227;-70
2021/09/04 12:56:12;;;;;;;;;;;21.30;99.90;;;;;;1846729;77;20184;-71
2021/09/04 12:58:57;;;;;;;;;;;21.30;99.90;;;;;;1847578;77;20219;-70
2021/09/04 13:01:26;;;;;;;;;;;21.70;99.90;;;;;;1824005;77;20168;-70
2021/09/04 13:03:53;;;;;;;;;;;21.70;99.90;;;;;;1808092;77;20176;-72
2021/09/04 13:06:19;;;;;;;;;;;21.60;99.90;;;;;;1807979;79;20133;-71
2021/09/04 13:08:46;;;;;;;;;;;21.90;99.90;;;;;;1819681;77;20215;-72
2021/09/04 13:11:13;;;;;;;;;;;21.70;99.90;;;;;;1805422;77;20124;-70
2021/09/04 13:13:40;;;;;;;;;;;21.30;99.90;;;;;;1822438;78;20417;-70
2021/09/04 13:16:07;;;;;;;;;;;22.20;99.90;;;;;;1817739;79;20199;-73
2021/09/04 13:18:33;;;;;;;;;;;22.90;99.90;;;;;;1835305;77;20227;-72
2021/09/04 13:21:00;;;;;;;;;;;23.40;99.90;;;;;;1824048;77;20187;-71
2021/09/04 13:23:27;;;;;;;;;;;23.80;99.90;;;;;;1842028;77;20181;-70
2021/09/04 13:25:54;;;;;;;;;;;23.40;99.90;;;;;;1816920;79;20121;-71
2021/09/04 13:28:20;;;;;;;;;;;22.80;99.90;;;;;;1813707;77;20180;-72
2021/09/04 13:30:47;;;;;;;;;;;22.20;99.90;;;;;;1815799;77;20624;-71
2021/09/04 13:33:14;;;;;;;;;;;21.90;99.90;;;;;;1801641;77;20174;-72
2021/09/04 13:35:41;;;;;;;;;;;21.60;99.90;;;;;;1814682;77;20478;-69
2021/09/04 13:38:08;;;;;;;;;;;21.70;99.90;;;;;;1820654;77;20176;-70
2021/09/04 13:40:34;;;;;;;;;;;22.30;99.90;;;;;;1805025;79;20294;-69
2021/09/04 13:43:01;;;;;;;;;;;23.20;99.90;;;;;;1869246;72;20487;-69
2021/09/04 13:45:28;;;;;;;;;;;23.80;99.90;;;;;;1888988;74;20213;-70
2021/09/04 13:47:56;;;;;;;;;;;24.00;99.90;;;;;;1888318;76;20202;-69
2021/09/04 13:50:23;;;;;;;;;;;24.30;99.90;;;;;;1886907;74;20183;-70
2021/09/04 13:52:50;;;;;;;;;;;24.20;99.90;;;;;;1883284;76;20175;-70
2021/09/04 13:55:17;;;;;;;;;;;24.30;99.90;;;;;;1879926;75;20234;-71
2021/09/04 13:57:44;;;;;;;;;;;24.70;99.90;;;;;;1882102;76;20223;-71
2021/09/04 14:00:11;;;;;;;;;;;24.80;99.80;;;;;;1880379;75;20409;-72
2021/09/04 14:02:38;;;;;;;;;;;24.80;97.80;;;;;;1881985;75;20184;-72
2021/09/04 14:05:04;;;;;;;;;;;25.00;98.70;;;;;;1881402;75;20754;-71
2021/09/04 14:07:31;;;;;;;;;;;25.10;98.50;;;;;;1881984;76;20160;-70
2021/09/04 14:09:58;;;;;;;;;;;25.40;98.70;;;;;;1879152;75;20224;-72
2021/09/04 14:12:26;;;;;;;;;;;25.60;98.30;;;;;;1880115;76;20422;-70
2021/09/04 14:14:53;;;;;;;;;;;25.70;97.90;;;;;;1880737;75;20379;-71
2021/09/04 14:17:20;;;;;;;;;;;25.40;97.80;;;;;;1879879;75;20172;-73
2021/09/04 14:19:46;;;;;;;;;;;25.70;96.60;;;;;;1881437;75;20528;-71